sensor_id;sensor_type;location;lat;lon;timestamp;P1;durP1;ratioP1;P2;durP2;ratioP2
41627;SDS011;27321;50.816;6.054;2023-05-01T00:00:05;1.93;;;1.63;;
41627;SDS011;27321;50.816;6.054;2023-05-01T00:03:08;1.77;;;1.30;;
41627;SDS011;27321;50.816;6.054;2023-05-01T00:06:09;2.17;;;1.30;;
41627;SDS011;27321;50.816;6.054;2023-05-01T00:09:10;4.95;;;1.80;;
41627;SDS011;27321;50.816;6.054;2023-05-01T00:12:11;1.67;;;1.52;;
41627;SDS011;27321;50.816;6.054;2023-05-01T00:15:12;2.47;;;2.10;;
41627;SDS011;27321;50.816;6.054;2023-05-01T00:18:13;2.90;;;1.90;;
41627;SDS011;27321;50.816;6.054;2023-05-01T00:21:14;2.13;;;1.60;;
41627;SDS011;27321;50.816;6.054;2023-05-01T00:24:15;2.83;;;1.92;;
41627;SDS011;27321;50.816;6.054;2023-05-01T00:27:16;1.73;;;1.63;;
41627;SDS011;27321;50.816;6.054;2023-05-01T00:30:17;2.33;;;1.83;;
41627;SDS011;27321;50.816;6.054;2023-05-01T00:33:18;2.53;;;1.90;;
41627;SDS011;27321;50.816;6.054;2023-05-01T00:36:19;4.72;;;2.10;;
41627;SDS011;27321;50.816;6.054;2023-05-01T00:39:20;2.42;;;1.75;;
41627;SDS011;27321;50.816;6.054;2023-05-01T00:42:21;2.05;;;1.83;;
41627;SDS011;27321;50.816;6.054;2023-05-01T00:45:22;2.92;;;1.88;;
41627;SDS011;27321;50.816;6.054;2023-05-01T00:48:23;3.13;;;2.00;;
41627;SDS011;27321;50.816;6.054;2023-05-01T00:51:24;2.88;;;2.00;;
41627;SDS011;27321;50.816;6.054;2023-05-01T00:54:28;2.63;;;1.87;;
41627;SDS011;27321;50.816;6.054;2023-05-01T00:57:29;2.08;;;1.98;;
41627;SDS011;27321;50.816;6.054;2023-05-01T01:00:31;2.20;;;2.00;;
41627;SDS011;27321;50.816;6.054;2023-05-01T01:03:33;4.18;;;2.05;;
41627;SDS011;27321;50.816;6.054;2023-05-01T01:10:30;2.97;;;1.80;;
41627;SDS011;27321;50.816;6.054;2023-05-01T01:13:42;3.20;;;1.77;;
41627;SDS011;27321;50.816;6.054;2023-05-01T01:16:55;2.53;;;2.17;;
41627;SDS011;27321;50.816;6.054;2023-05-01T01:27:57;3.27;;;1.80;;
41627;SDS011;27321;50.816;6.054;2023-05-01T01:35:02;2.25;;;1.80;;
41627;SDS011;27321;50.816;6.054;2023-05-01T01:38:18;4.70;;;2.10;;
41627;SDS011;27321;50.816;6.054;2023-05-01T01:41:25;2.93;;;2.17;;
41627;SDS011;27321;50.816;6.054;2023-05-01T01:44:38;1.87;;;1.67;;
41627;SDS011;27321;50.816;6.054;2023-05-01T01:47:42;3.65;;;2.10;;
41627;SDS011;27321;50.816;6.054;2023-05-01T01:50:44;2.83;;;2.30;;
41627;SDS011;27321;50.816;6.054;2023-05-01T01:53:48;2.43;;;1.80;;
41627;SDS011;27321;50.816;6.054;2023-05-01T01:56:53;4.28;;;1.88;;
41627;SDS011;27321;50.816;6.054;2023-05-01T01:59:57;3.65;;;2.15;;
41627;SDS011;27321;50.816;6.054;2023-05-01T02:02:58;2.40;;;1.90;;
41627;SDS011;27321;50.816;6.054;2023-05-01T02:06:01;2.95;;;2.05;;
41627;SDS011;27321;50.816;6.054;2023-05-01T02:09:04;2.87;;;1.97;;
41627;SDS011;27321;50.816;6.054;2023-05-01T02:12:07;1.83;;;1.73;;
41627;SDS011;27321;50.816;6.054;2023-05-01T02:15:09;4.07;;;2.10;;
41627;SDS011;27321;50.816;6.054;2023-05-01T02:18:11;3.95;;;2.00;;
41627;SDS011;27321;50.816;6.054;2023-05-01T02:21:14;2.80;;;1.90;;
41627;SDS011;27321;50.816;6.054;2023-05-01T02:24:16;3.20;;;2.10;;
41627;SDS011;27321;50.816;6.054;2023-05-01T02:27:22;3.70;;;2.20;;
41627;SDS011;27321;50.816;6.054;2023-05-01T02:30:28;2.05;;;1.80;;
41627;SDS011;27321;50.816;6.054;2023-05-01T02:33:29;3.65;;;2.05;;
41627;SDS011;27321;50.816;6.054;2023-05-01T02:36:31;2.33;;;2.13;;
41627;SDS011;27321;50.816;6.054;2023-05-01T02:39:33;2.00;;;1.85;;
41627;SDS011;27321;50.816;6.054;2023-05-01T02:45:37;1.70;;;1.57;;
41627;SDS011;27321;50.816;6.054;2023-05-01T02:48:39;2.43;;;1.93;;
41627;SDS011;27321;50.816;6.054;2023-05-01T02:51:42;2.07;;;1.83;;
41627;SDS011;27321;50.816;6.054;2023-05-01T02:54:45;3.10;;;1.80;;
41627;SDS011;27321;50.816;6.054;2023-05-01T02:57:49;2.10;;;1.90;;
41627;SDS011;27321;50.816;6.054;2023-05-01T03:00:51;3.00;;;1.80;;
41627;SDS011;27321;50.816;6.054;2023-05-01T03:03:53;2.33;;;1.87;;
41627;SDS011;27321;50.816;6.054;2023-05-01T03:06:54;2.25;;;2.05;;
41627;SDS011;27321;50.816;6.054;2023-05-01T03:09:56;2.40;;;1.75;;
41627;SDS011;27321;50.816;6.054;2023-05-01T03:12:57;2.13;;;1.75;;
41627;SDS011;27321;50.816;6.054;2023-05-01T03:15:57;2.08;;;1.77;;
41627;SDS011;27321;50.816;6.054;2023-05-01T03:18:58;2.60;;;1.85;;
41627;SDS011;27321;50.816;6.054;2023-05-01T03:21:59;4.93;;;1.83;;
41627;SDS011;27321;50.816;6.054;2023-05-01T03:25:01;2.00;;;1.80;;
41627;SDS011;27321;50.816;6.054;2023-05-01T03:28:03;1.90;;;1.60;;
41627;SDS011;27321;50.816;6.054;2023-05-01T03:31:05;2.83;;;1.80;;
41627;SDS011;27321;50.816;6.054;2023-05-01T03:34:06;2.30;;;1.60;;
41627;SDS011;27321;50.816;6.054;2023-05-01T03:37:07;3.10;;;1.70;;
41627;SDS011;27321;50.816;6.054;2023-05-01T03:40:08;3.55;;;1.80;;
41627;SDS011;27321;50.816;6.054;2023-05-01T03:43:48;2.93;;;2.00;;
41627;SDS011;27321;50.816;6.054;2023-05-01T03:47:06;3.03;;;2.03;;
41627;SDS011;27321;50.816;6.054;2023-05-01T03:50:14;1.93;;;1.73;;
41627;SDS011;27321;50.816;6.054;2023-05-01T03:53:17;2.10;;;1.80;;
41627;SDS011;27321;50.816;6.054;2023-05-01T03:56:18;3.13;;;2.00;;
41627;SDS011;27321;50.816;6.054;2023-05-01T03:59:20;2.97;;;1.90;;
41627;SDS011;27321;50.816;6.054;2023-05-01T04:02:21;2.60;;;1.90;;
41627;SDS011;27321;50.816;6.054;2023-05-01T04:05:22;2.70;;;1.80;;
41627;SDS011;27321;50.816;6.054;2023-05-01T04:08:27;2.17;;;1.97;;
41627;SDS011;27321;50.816;6.054;2023-05-01T04:11:29;2.67;;;1.83;;
41627;SDS011;27321;50.816;6.054;2023-05-01T04:14:30;2.10;;;1.70;;
41627;SDS011;27321;50.816;6.054;2023-05-01T04:20:35;3.30;;;1.47;;
41627;SDS011;27321;50.816;6.054;2023-05-01T04:23:36;2.20;;;1.80;;
41627;SDS011;27321;50.816;6.054;2023-05-01T04:26:37;2.70;;;2.05;;
41627;SDS011;27321;50.816;6.054;2023-05-01T04:29:38;1.80;;;1.70;;
41627;SDS011;27321;50.816;6.054;2023-05-01T04:32:41;3.67;;;2.20;;
41627;SDS011;27321;50.816;6.054;2023-05-01T04:35:42;2.10;;;1.83;;
41627;SDS011;27321;50.816;6.054;2023-05-01T04:38:43;3.20;;;2.13;;
41627;SDS011;27321;50.816;6.054;2023-05-01T04:44:46;3.40;;;1.70;;
41627;SDS011;27321;50.816;6.054;2023-05-01T04:47:48;5.87;;;1.80;;
41627;SDS011;27321;50.816;6.054;2023-05-01T04:50:49;1.80;;;1.70;;
41627;SDS011;27321;50.816;6.054;2023-05-01T04:53:51;1.95;;;1.75;;
41627;SDS011;27321;50.816;6.054;2023-05-01T04:56:56;2.33;;;1.80;;
41627;SDS011;27321;50.816;6.054;2023-05-01T04:59:57;2.35;;;2.10;;
41627;SDS011;27321;50.816;6.054;2023-05-01T05:02:58;2.10;;;1.67;;
41627;SDS011;27321;50.816;6.054;2023-05-01T05:06:00;2.42;;;1.70;;
41627;SDS011;27321;50.816;6.054;2023-05-01T05:09:01;2.53;;;1.88;;
41627;SDS011;27321;50.816;6.054;2023-05-01T05:12:02;2.67;;;1.90;;
41627;SDS011;27321;50.816;6.054;2023-05-01T05:15:05;2.22;;;1.75;;
41627;SDS011;27321;50.816;6.054;2023-05-01T05:18:09;2.23;;;1.70;;
41627;SDS011;27321;50.816;6.054;2023-05-01T05:21:10;3.50;;;2.00;;
41627;SDS011;27321;50.816;6.054;2023-05-01T05:24:16;2.27;;;1.57;;
41627;SDS011;27321;50.816;6.054;2023-05-01T05:27:17;2.47;;;2.00;;
41627;SDS011;27321;50.816;6.054;2023-05-01T05:30:18;1.77;;;1.60;;
41627;SDS011;27321;50.816;6.054;2023-05-01T05:33:19;1.92;;;1.83;;
41627;SDS011;27321;50.816;6.054;2023-05-01T05:36:21;1.80;;;1.70;;
41627;SDS011;27321;50.816;6.054;2023-05-01T05:39:22;1.90;;;1.80;;
41627;SDS011;27321;50.816;6.054;2023-05-01T05:42:23;3.38;;;2.03;;
41627;SDS011;27321;50.816;6.054;2023-05-01T05:45:24;2.30;;;1.70;;
41627;SDS011;27321;50.816;6.054;2023-05-01T05:48:25;1.73;;;1.63;;
41627;SDS011;27321;50.816;6.054;2023-05-01T05:51:27;1.60;;;1.50;;
41627;SDS011;27321;50.816;6.054;2023-05-01T05:54:28;2.88;;;1.80;;
41627;SDS011;27321;50.816;6.054;2023-05-01T05:57:29;1.73;;;1.58;;
41627;SDS011;27321;50.816;6.054;2023-05-01T06:00:30;1.85;;;1.63;;
41627;SDS011;27321;50.816;6.054;2023-05-01T06:03:36;2.05;;;1.70;;
41627;SDS011;27321;50.816;6.054;2023-05-01T06:06:37;2.15;;;1.80;;
41627;SDS011;27321;50.816;6.054;2023-05-01T06:09:39;1.70;;;1.60;;
41627;SDS011;27321;50.816;6.054;2023-05-01T06:12:41;2.10;;;1.90;;
41627;SDS011;27321;50.816;6.054;2023-05-01T06:15:42;2.20;;;1.60;;
41627;SDS011;27321;50.816;6.054;2023-05-01T06:18:43;2.58;;;1.42;;
41627;SDS011;27321;50.816;6.054;2023-05-01T06:21:44;1.85;;;1.50;;
41627;SDS011;27321;50.816;6.054;2023-05-01T06:24:46;1.55;;;1.45;;
41627;SDS011;27321;50.816;6.054;2023-05-01T06:27:47;2.95;;;1.77;;
41627;SDS011;27321;50.816;6.054;2023-05-01T06:30:48;1.95;;;1.48;;
41627;SDS011;27321;50.816;6.054;2023-05-01T06:33:51;1.77;;;1.50;;
41627;SDS011;27321;50.816;6.054;2023-05-01T06:36:59;1.85;;;1.50;;
41627;SDS011;27321;50.816;6.054;2023-05-01T06:40:00;1.40;;;1.30;;
41627;SDS011;27321;50.816;6.054;2023-05-01T06:43:01;1.60;;;1.00;;
41627;SDS011;27321;50.816;6.054;2023-05-01T06:46:03;1.35;;;0.93;;
41627;SDS011;27321;50.816;6.054;2023-05-01T06:49:04;1.10;;;1.05;;
41627;SDS011;27321;50.816;6.054;2023-05-01T06:52:06;1.30;;;1.05;;
41627;SDS011;27321;50.816;6.054;2023-05-01T06:55:07;0.90;;;0.90;;
41627;SDS011;27321;50.816;6.054;2023-05-01T06:58:08;0.77;;;0.70;;
41627;SDS011;27321;50.816;6.054;2023-05-01T07:01:10;0.80;;;0.80;;
41627;SDS011;27321;50.816;6.054;2023-05-01T07:04:11;1.55;;;0.98;;
41627;SDS011;27321;50.816;6.054;2023-05-01T07:07:11;0.70;;;0.70;;
41627;SDS011;27321;50.816;6.054;2023-05-01T07:10:13;0.80;;;0.80;;
41627;SDS011;27321;50.816;6.054;2023-05-01T07:13:15;0.82;;;0.82;;
41627;SDS011;27321;50.816;6.054;2023-05-01T07:19:17;1.42;;;0.60;;
41627;SDS011;27321;50.816;6.054;2023-05-01T07:22:18;0.80;;;0.80;;
41627;SDS011;27321;50.816;6.054;2023-05-01T07:25:19;1.13;;;0.90;;
41627;SDS011;27321;50.816;6.054;2023-05-01T07:28:20;0.85;;;0.85;;
41627;SDS011;27321;50.816;6.054;2023-05-01T07:31:22;0.77;;;0.70;;
41627;SDS011;27321;50.816;6.054;2023-05-01T07:34:23;1.48;;;0.90;;
41627;SDS011;27321;50.816;6.054;2023-05-01T07:37:24;2.97;;;0.90;;
41627;SDS011;27321;50.816;6.054;2023-05-01T07:40:26;0.77;;;0.77;;
41627;SDS011;27321;50.816;6.054;2023-05-01T07:43:27;0.80;;;0.80;;
41627;SDS011;27321;50.816;6.054;2023-05-01T07:46:28;1.27;;;0.90;;
41627;SDS011;27321;50.816;6.054;2023-05-01T07:49:29;1.80;;;1.05;;
41627;SDS011;27321;50.816;6.054;2023-05-01T07:52:37;0.90;;;0.90;;
41627;SDS011;27321;50.816;6.054;2023-05-01T07:55:38;1.05;;;0.95;;
41627;SDS011;27321;50.816;6.054;2023-05-01T07:58:39;1.38;;;1.10;;
41627;SDS011;27321;50.816;6.054;2023-05-01T08:01:41;1.05;;;0.85;;
41627;SDS011;27321;50.816;6.054;2023-05-01T08:04:42;2.47;;;1.42;;
41627;SDS011;27321;50.816;6.054;2023-05-01T08:07:45;1.00;;;1.00;;
41627;SDS011;27321;50.816;6.054;2023-05-01T08:10:46;1.90;;;1.33;;
41627;SDS011;27321;50.816;6.054;2023-05-01T08:16:48;0.87;;;0.87;;
41627;SDS011;27321;50.816;6.054;2023-05-01T08:19:54;1.40;;;1.00;;
41627;SDS011;27321;50.816;6.054;2023-05-01T08:25:56;1.70;;;1.13;;
41627;SDS011;27321;50.816;6.054;2023-05-01T08:28:58;1.38;;;1.15;;
41627;SDS011;27321;50.816;6.054;2023-05-01T08:31:58;1.23;;;1.13;;
41627;SDS011;27321;50.816;6.054;2023-05-01T08:35:00;1.75;;;1.30;;
41627;SDS011;27321;50.816;6.054;2023-05-01T08:38:01;1.73;;;1.20;;
41627;SDS011;27321;50.816;6.054;2023-05-01T08:41:02;3.17;;;1.45;;
41627;SDS011;27321;50.816;6.054;2023-05-01T08:44:05;2.60;;;1.50;;
41627;SDS011;27321;50.816;6.054;2023-05-01T08:47:13;1.75;;;1.65;;
41627;SDS011;27321;50.816;6.054;2023-05-01T08:50:16;1.55;;;1.45;;
41627;SDS011;27321;50.816;6.054;2023-05-01T08:53:17;1.60;;;1.50;;
41627;SDS011;27321;50.816;6.054;2023-05-01T08:56:20;1.83;;;1.45;;
41627;SDS011;27321;50.816;6.054;2023-05-01T08:59:22;1.70;;;1.60;;
41627;SDS011;27321;50.816;6.054;2023-05-01T09:02:25;3.20;;;1.90;;
41627;SDS011;27321;50.816;6.054;2023-05-01T09:05:30;2.53;;;1.90;;
41627;SDS011;27321;50.816;6.054;2023-05-01T09:08:32;1.98;;;1.70;;
41627;SDS011;27321;50.816;6.054;2023-05-01T09:11:33;2.78;;;1.65;;
41627;SDS011;27321;50.816;6.054;2023-05-01T09:14:36;3.22;;;2.70;;
41627;SDS011;27321;50.816;6.054;2023-05-01T09:17:37;2.35;;;2.15;;
41627;SDS011;27321;50.816;6.054;2023-05-01T09:20:39;2.58;;;2.28;;
41627;SDS011;27321;50.816;6.054;2023-05-01T09:23:41;2.47;;;2.28;;
41627;SDS011;27321;50.816;6.054;2023-05-01T09:26:42;2.60;;;2.40;;
41627;SDS011;27321;50.816;6.054;2023-05-01T09:29:44;3.10;;;2.22;;
41627;SDS011;27321;50.816;6.054;2023-05-01T09:32:46;2.50;;;2.20;;
41627;SDS011;27321;50.816;6.054;2023-05-01T09:36:10;4.25;;;3.22;;
41627;SDS011;27321;50.816;6.054;2023-05-01T09:39:21;3.72;;;2.92;;
41627;SDS011;27321;50.816;6.054;2023-05-01T09:42:23;3.15;;;2.67;;
41627;SDS011;27321;50.816;6.054;2023-05-01T09:45:24;2.88;;;2.60;;
41627;SDS011;27321;50.816;6.054;2023-05-01T09:48:26;3.17;;;2.78;;
41627;SDS011;27321;50.816;6.054;2023-05-01T09:54:30;3.63;;;3.33;;
41627;SDS011;27321;50.816;6.054;2023-05-01T09:57:34;3.05;;;2.83;;
41627;SDS011;27321;50.816;6.054;2023-05-01T10:00:47;7.80;;;4.35;;
41627;SDS011;27321;50.816;6.054;2023-05-01T10:03:54;3.13;;;2.70;;
41627;SDS011;27321;50.816;6.054;2023-05-01T10:06:55;4.15;;;3.47;;
41627;SDS011;27321;50.816;6.054;2023-05-01T10:09:56;3.75;;;3.40;;
41627;SDS011;27321;50.816;6.054;2023-05-01T10:13:11;4.03;;;3.20;;
41627;SDS011;27321;50.816;6.054;2023-05-01T10:16:27;3.50;;;3.20;;
41627;SDS011;27321;50.816;6.054;2023-05-01T10:19:30;5.95;;;4.43;;
41627;SDS011;27321;50.816;6.054;2023-05-01T10:22:31;4.40;;;3.83;;
41627;SDS011;27321;50.816;6.054;2023-05-01T10:25:32;4.85;;;3.65;;
41627;SDS011;27321;50.816;6.054;2023-05-01T10:28:33;6.22;;;4.85;;
41627;SDS011;27321;50.816;6.054;2023-05-01T10:31:35;6.18;;;4.45;;
41627;SDS011;27321;50.816;6.054;2023-05-01T10:34:38;5.05;;;4.30;;
41627;SDS011;27321;50.816;6.054;2023-05-01T10:37:46;6.78;;;5.47;;
41627;SDS011;27321;50.816;6.054;2023-05-01T10:40:48;4.80;;;4.30;;
41627;SDS011;27321;50.816;6.054;2023-05-01T10:43:53;4.60;;;4.20;;
41627;SDS011;27321;50.816;6.054;2023-05-01T10:50:27;4.00;;;3.60;;
41627;SDS011;27321;50.816;6.054;2023-05-01T10:53:28;6.25;;;5.57;;
41627;SDS011;27321;50.816;6.054;2023-05-01T11:06:22;6.47;;;4.00;;
41627;SDS011;27321;50.816;6.054;2023-05-01T11:09:43;5.32;;;3.17;;
41627;SDS011;27321;50.816;6.054;2023-05-01T11:12:48;10.75;;;5.50;;
41627;SDS011;27321;50.816;6.054;2023-05-01T11:15:51;6.60;;;5.05;;
41627;SDS011;27321;50.816;6.054;2023-05-01T11:18:52;6.78;;;5.78;;
41627;SDS011;27321;50.816;6.054;2023-05-01T11:21:53;6.47;;;5.15;;
41627;SDS011;27321;50.816;6.054;2023-05-01T11:24:54;5.70;;;5.15;;
41627;SDS011;27321;50.816;6.054;2023-05-01T11:27:57;4.85;;;4.35;;
41627;SDS011;27321;50.816;6.054;2023-05-01T11:31:00;8.60;;;4.95;;
41627;SDS011;27321;50.816;6.054;2023-05-01T11:34:02;5.90;;;3.83;;
41627;SDS011;27321;50.816;6.054;2023-05-01T11:37:06;5.03;;;4.53;;
41627;SDS011;27321;50.816;6.054;2023-05-01T11:40:29;7.70;;;5.03;;
41627;SDS011;27321;50.816;6.054;2023-05-01T11:43:31;6.03;;;5.43;;
41627;SDS011;27321;50.816;6.054;2023-05-01T11:46:32;5.90;;;5.35;;
41627;SDS011;27321;50.816;6.054;2023-05-01T11:49:33;5.45;;;4.95;;
41627;SDS011;27321;50.816;6.054;2023-05-01T11:52:48;6.03;;;5.10;;
41627;SDS011;27321;50.816;6.054;2023-05-01T11:55:54;6.68;;;5.97;;
41627;SDS011;27321;50.816;6.054;2023-05-01T11:58:56;7.75;;;5.95;;
41627;SDS011;27321;50.816;6.054;2023-05-01T12:02:16;6.05;;;5.47;;
41627;SDS011;27321;50.816;6.054;2023-05-01T12:05:19;6.65;;;6.05;;
41627;SDS011;27321;50.816;6.054;2023-05-01T12:08:22;9.52;;;7.18;;
41627;SDS011;27321;50.816;6.054;2023-05-01T12:14:25;8.07;;;6.10;;
41627;SDS011;27321;50.816;6.054;2023-05-01T12:17:26;6.70;;;5.68;;
41627;SDS011;27321;50.816;6.054;2023-05-01T12:23:51;8.20;;;6.65;;
41627;SDS011;27321;50.816;6.054;2023-05-01T12:26:58;7.65;;;6.28;;
41627;SDS011;27321;50.816;6.054;2023-05-01T12:30:01;7.53;;;5.95;;
41627;SDS011;27321;50.816;6.054;2023-05-01T12:33:15;7.95;;;6.53;;
41627;SDS011;27321;50.816;6.054;2023-05-01T12:36:20;10.65;;;6.60;;
41627;SDS011;27321;50.816;6.054;2023-05-01T12:39:34;7.80;;;6.60;;
41627;SDS011;27321;50.816;6.054;2023-05-01T12:42:41;12.57;;;7.82;;
41627;SDS011;27321;50.816;6.054;2023-05-01T12:45:42;7.30;;;6.60;;
41627;SDS011;27321;50.816;6.054;2023-05-01T12:48:43;7.68;;;6.20;;
41627;SDS011;27321;50.816;6.054;2023-05-01T12:51:48;5.18;;;4.32;;
41627;SDS011;27321;50.816;6.054;2023-05-01T12:54:51;6.97;;;5.82;;
41627;SDS011;27321;50.816;6.054;2023-05-01T12:58:04;9.95;;;6.65;;
41627;SDS011;27321;50.816;6.054;2023-05-01T13:01:05;6.13;;;5.43;;
41627;SDS011;27321;50.816;6.054;2023-05-01T13:04:06;6.15;;;5.55;;
41627;SDS011;27321;50.816;6.054;2023-05-01T13:07:11;6.88;;;6.18;;
41627;SDS011;27321;50.816;6.054;2023-05-01T13:10:27;5.35;;;4.85;;
41627;SDS011;27321;50.816;6.054;2023-05-01T13:13:32;4.38;;;3.65;;
41627;SDS011;27321;50.816;6.054;2023-05-01T13:16:44;2.78;;;2.58;;
41627;SDS011;27321;50.816;6.054;2023-05-01T13:19:51;4.93;;;2.83;;
41627;SDS011;27321;50.816;6.054;2023-05-01T13:22:58;2.58;;;2.38;;
41627;SDS011;27321;50.816;6.054;2023-05-01T13:25:59;5.72;;;2.25;;
41627;SDS011;27321;50.816;6.054;2023-05-01T13:29:02;2.28;;;1.98;;
41627;SDS011;27321;50.816;6.054;2023-05-01T13:32:05;2.00;;;1.80;;
41627;SDS011;27321;50.816;6.054;2023-05-01T13:35:09;1.95;;;1.83;;
41627;SDS011;27321;50.816;6.054;2023-05-01T13:38:10;1.65;;;1.55;;
41627;SDS011;27321;50.816;6.054;2023-05-01T13:41:16;1.80;;;1.55;;
41627;SDS011;27321;50.816;6.054;2023-05-01T13:44:22;1.55;;;1.25;;
41627;SDS011;27321;50.816;6.054;2023-05-01T13:47:23;1.50;;;1.40;;
41627;SDS011;27321;50.816;6.054;2023-05-01T13:50:26;1.63;;;1.52;;
41627;SDS011;27321;50.816;6.054;2023-05-01T13:53:27;3.67;;;1.52;;
41627;SDS011;27321;50.816;6.054;2023-05-01T13:56:29;2.13;;;1.75;;
41627;SDS011;27321;50.816;6.054;2023-05-01T13:59:40;3.38;;;2.13;;
41627;SDS011;27321;50.816;6.054;2023-05-01T14:02:47;1.85;;;1.67;;
41627;SDS011;27321;50.816;6.054;2023-05-01T14:05:48;1.75;;;1.60;;
41627;SDS011;27321;50.816;6.054;2023-05-01T14:08:50;2.45;;;2.03;;
41627;SDS011;27321;50.816;6.054;2023-05-01T14:11:51;2.10;;;1.55;;
41627;SDS011;27321;50.816;6.054;2023-05-01T14:14:54;4.25;;;1.83;;
41627;SDS011;27321;50.816;6.054;2023-05-01T14:20:58;2.28;;;1.98;;
41627;SDS011;27321;50.816;6.054;2023-05-01T14:23:59;1.95;;;1.65;;
41627;SDS011;27321;50.816;6.054;2023-05-01T14:27:00;2.33;;;2.13;;
41627;SDS011;27321;50.816;6.054;2023-05-01T14:30:04;3.38;;;2.70;;
41627;SDS011;27321;50.816;6.054;2023-05-01T14:33:11;3.10;;;2.10;;
41627;SDS011;27321;50.816;6.054;2023-05-01T14:36:13;2.05;;;1.92;;
41627;SDS011;27321;50.816;6.054;2023-05-01T14:39:14;2.10;;;1.90;;
41627;SDS011;27321;50.816;6.054;2023-05-01T14:42:15;1.73;;;1.50;;
41627;SDS011;27321;50.816;6.054;2023-05-01T14:45:16;1.83;;;1.70;;
41627;SDS011;27321;50.816;6.054;2023-05-01T14:48:21;2.47;;;2.28;;
41627;SDS011;27321;50.816;6.054;2023-05-01T14:51:24;3.08;;;2.75;;
41627;SDS011;27321;50.816;6.054;2023-05-01T14:54:25;3.20;;;2.40;;
41627;SDS011;27321;50.816;6.054;2023-05-01T14:57:26;4.28;;;3.00;;
41627;SDS011;27321;50.816;6.054;2023-05-01T15:00:27;5.15;;;4.20;;
41627;SDS011;27321;50.816;6.054;2023-05-01T15:03:28;5.57;;;4.72;;
41627;SDS011;27321;50.816;6.054;2023-05-01T15:06:30;5.20;;;4.70;;
41627;SDS011;27321;50.816;6.054;2023-05-01T15:09:32;5.93;;;4.90;;
41627;SDS011;27321;50.816;6.054;2023-05-01T15:12:33;5.30;;;4.80;;
41627;SDS011;27321;50.816;6.054;2023-05-01T15:15:34;4.50;;;4.18;;
41627;SDS011;27321;50.816;6.054;2023-05-01T15:18:35;3.17;;;2.95;;
41627;SDS011;27321;50.816;6.054;2023-05-01T15:21:37;3.42;;;3.13;;
41627;SDS011;27321;50.816;6.054;2023-05-01T15:24:38;3.92;;;3.25;;
41627;SDS011;27321;50.816;6.054;2023-05-01T15:27:39;6.07;;;4.15;;
41627;SDS011;27321;50.816;6.054;2023-05-01T15:30:44;3.92;;;3.60;;
41627;SDS011;27321;50.816;6.054;2023-05-01T15:33:46;3.53;;;3.22;;
41627;SDS011;27321;50.816;6.054;2023-05-01T15:36:47;4.18;;;3.78;;
41627;SDS011;27321;50.816;6.054;2023-05-01T15:39:50;3.90;;;3.50;;
41627;SDS011;27321;50.816;6.054;2023-05-01T15:42:51;4.00;;;3.20;;
41627;SDS011;27321;50.816;6.054;2023-05-01T15:45:52;3.22;;;2.90;;
41627;SDS011;27321;50.816;6.054;2023-05-01T15:48:57;3.50;;;3.20;;
41627;SDS011;27321;50.816;6.054;2023-05-01T15:51:57;5.10;;;4.50;;
41627;SDS011;27321;50.816;6.054;2023-05-01T15:54:58;5.90;;;5.20;;
41627;SDS011;27321;50.816;6.054;2023-05-01T15:57:59;5.05;;;4.65;;
41627;SDS011;27321;50.816;6.054;2023-05-01T16:01:01;5.05;;;4.63;;
41627;SDS011;27321;50.816;6.054;2023-05-01T16:04:03;4.70;;;4.32;;
41627;SDS011;27321;50.816;6.054;2023-05-01T16:07:04;5.72;;;5.03;;
41627;SDS011;27321;50.816;6.054;2023-05-01T16:10:08;5.30;;;4.30;;
41627;SDS011;27321;50.816;6.054;2023-05-01T16:13:09;4.32;;;4.03;;
41627;SDS011;27321;50.816;6.054;2023-05-01T16:16:10;4.63;;;4.22;;
41627;SDS011;27321;50.816;6.054;2023-05-01T16:19:14;5.20;;;4.80;;
41627;SDS011;27321;50.816;6.054;2023-05-01T16:22:16;5.25;;;4.75;;
41627;SDS011;27321;50.816;6.054;2023-05-01T16:25:17;5.55;;;5.15;;
41627;SDS011;27321;50.816;6.054;2023-05-01T16:28:18;5.85;;;5.05;;
41627;SDS011;27321;50.816;6.054;2023-05-01T16:31:19;5.40;;;4.68;;
41627;SDS011;27321;50.816;6.054;2023-05-01T16:34:22;5.25;;;4.75;;
41627;SDS011;27321;50.816;6.054;2023-05-01T16:37:24;5.15;;;4.50;;
41627;SDS011;27321;50.816;6.054;2023-05-01T16:43:27;5.00;;;4.60;;
41627;SDS011;27321;50.816;6.054;2023-05-01T16:46:28;5.18;;;4.65;;
41627;SDS011;27321;50.816;6.054;2023-05-01T16:49:30;4.68;;;4.28;;
41627;SDS011;27321;50.816;6.054;2023-05-01T16:52:31;4.82;;;4.43;;
41627;SDS011;27321;50.816;6.054;2023-05-01T16:55:34;5.32;;;4.82;;
41627;SDS011;27321;50.816;6.054;2023-05-01T16:58:35;5.32;;;4.82;;
41627;SDS011;27321;50.816;6.054;2023-05-01T17:01:36;4.78;;;4.28;;
41627;SDS011;27321;50.816;6.054;2023-05-01T17:04:44;5.18;;;4.68;;
41627;SDS011;27321;50.816;6.054;2023-05-01T17:07:45;7.85;;;5.53;;
41627;SDS011;27321;50.816;6.054;2023-05-01T17:10:50;7.10;;;6.40;;
41627;SDS011;27321;50.816;6.054;2023-05-01T17:13:51;7.47;;;6.13;;
41627;SDS011;27321;50.816;6.054;2023-05-01T17:16:52;7.63;;;6.78;;
41627;SDS011;27321;50.816;6.054;2023-05-01T17:19:53;10.63;;;9.63;;
41627;SDS011;27321;50.816;6.054;2023-05-01T17:22:54;9.30;;;8.30;;
41627;SDS011;27321;50.816;6.054;2023-05-01T17:25:55;8.35;;;7.43;;
41627;SDS011;27321;50.816;6.054;2023-05-01T17:28:56;6.30;;;5.70;;
41627;SDS011;27321;50.816;6.054;2023-05-01T17:31:57;5.95;;;5.32;;
41627;SDS011;27321;50.816;6.054;2023-05-01T17:34:58;7.72;;;6.93;;
41627;SDS011;27321;50.816;6.054;2023-05-01T17:37:59;7.13;;;6.43;;
41627;SDS011;27321;50.816;6.054;2023-05-01T17:41:01;7.30;;;6.55;;
41627;SDS011;27321;50.816;6.054;2023-05-01T17:47:03;6.53;;;5.13;;
41627;SDS011;27321;50.816;6.054;2023-05-01T17:50:05;5.47;;;4.97;;
41627;SDS011;27321;50.816;6.054;2023-05-01T17:53:08;5.43;;;4.90;;
41627;SDS011;27321;50.816;6.054;2023-05-01T17:56:10;5.75;;;5.20;;
41627;SDS011;27321;50.816;6.054;2023-05-01T17:59:11;5.68;;;5.18;;
41627;SDS011;27321;50.816;6.054;2023-05-01T18:02:12;5.63;;;5.07;;
41627;SDS011;27321;50.816;6.054;2023-05-01T18:05:13;5.80;;;5.30;;
41627;SDS011;27321;50.816;6.054;2023-05-01T18:11:16;7.65;;;5.68;;
41627;SDS011;27321;50.816;6.054;2023-05-01T18:14:18;6.57;;;5.85;;
41627;SDS011;27321;50.816;6.054;2023-05-01T18:17:22;6.90;;;6.20;;
41627;SDS011;27321;50.816;6.054;2023-05-01T18:20:24;7.40;;;6.28;;
41627;SDS011;27321;50.816;6.054;2023-05-01T18:23:25;7.43;;;6.50;;
41627;SDS011;27321;50.816;6.054;2023-05-01T18:26:26;8.00;;;7.00;;
41627;SDS011;27321;50.816;6.054;2023-05-01T18:29:28;7.63;;;6.88;;
41627;SDS011;27321;50.816;6.054;2023-05-01T18:32:29;7.50;;;6.80;;
41627;SDS011;27321;50.816;6.054;2023-05-01T18:38:32;7.75;;;6.95;;
41627;SDS011;27321;50.816;6.054;2023-05-01T18:41:33;7.63;;;6.70;;
41627;SDS011;27321;50.816;6.054;2023-05-01T18:44:34;7.20;;;6.50;;
41627;SDS011;27321;50.816;6.054;2023-05-01T18:47:35;7.35;;;6.63;;
41627;SDS011;27321;50.816;6.054;2023-05-01T18:50:36;7.28;;;6.57;;
41627;SDS011;27321;50.816;6.054;2023-05-01T18:53:37;8.27;;;6.70;;
41627;SDS011;27321;50.816;6.054;2023-05-01T18:56:38;12.52;;;11.32;;
41627;SDS011;27321;50.816;6.054;2023-05-01T18:59:40;12.45;;;11.20;;
41627;SDS011;27321;50.816;6.054;2023-05-01T19:02:40;13.57;;;11.77;;
41627;SDS011;27321;50.816;6.054;2023-05-01T19:05:42;11.18;;;10.07;;
41627;SDS011;27321;50.816;6.054;2023-05-01T19:08:43;10.65;;;9.55;;
41627;SDS011;27321;50.816;6.054;2023-05-01T19:11:44;8.88;;;8.07;;
41627;SDS011;27321;50.816;6.054;2023-05-01T19:14:45;10.18;;;8.18;;
41627;SDS011;27321;50.816;6.054;2023-05-01T19:17:46;7.88;;;7.15;;
41627;SDS011;27321;50.816;6.054;2023-05-01T19:20:47;10.45;;;8.45;;
41627;SDS011;27321;50.816;6.054;2023-05-01T19:23:48;9.02;;;8.15;;
41627;SDS011;27321;50.816;6.054;2023-05-01T19:29:50;11.03;;;9.40;;
41627;SDS011;27321;50.816;6.054;2023-05-01T19:32:53;12.13;;;9.55;;
41627;SDS011;27321;50.816;6.054;2023-05-01T19:35:54;11.20;;;9.60;;